Time,TemperatureF,DewpointF,PressureIn,WindDirection,WindDirectionDegrees,WindSpeedMPH,WindSpeedGustMPH,Humidity,HourlyPrecipIn,Conditions,Clouds,dailyrainin,SoftwareType,DateUTC
2013-06-10 00:02:00,60.9,60.6,29.80,SE,135,0.0,0.0,99,0.00,,SKC,0.00,VWS V12.07,2013-06-10 05:02:00,
2013-06-10 00:09:00,60.9,60.6,29.79,SE,136,0.0,0.0,99,0.00,,SKC,0.00,VWS V12.07,2013-06-10 05:09:00,
2013-06-10 00:15:00,60.9,60.6,29.79,SE,135,0.0,0.0,99,0.00,,SKC,0.00,VWS V12.07,2013-06-10 05:15:00,
2013-06-10 00:22:00,60.9,60.6,29.79,South,190,0.0,0.0,99,0.00,,SKC,0.00,VWS V12.07,2013-06-10 05:22:00,
2013-06-10 00:29:00,60.8,60.5,29.79,South,190,0.0,0.0,99,0.00,,SKC,0.00,VWS V12.07,2013-06-10 05:29:00,
2013-06-10 00:35:00,60.8,60.5,29.79,SSE,151,0.0,0.0,99,0.00,,SKC,0.00,VWS V12.07,2013-06-10 05:35:00,
2013-06-10 00:42:00,60.7,60.4,29.79,SSE,150,0.0,0.0,99,0.00,,SKC,0.00,VWS V12.07,2013-06-10 05:42:00,
2013-06-10 00:49:00,60.6,60.3,29.79,SSE,151,0.0,0.0,99,0.00,,SKC,0.00,VWS V12.07,2013-06-10 05:49:00,
2013-06-10 00:55:00,60.7,60.4,29.79,SSE,151,0.0,0.0,99,0.00,,SKC,0.00,VWS V12.07,2013-06-10 05:55:00,
2013-06-10 01:02:00,60.8,60.5,29.79,South,190,0.0,0.0,99,0.00,,SKC,0.00,VWS V12.07,2013-06-10 06:02:00,
2013-06-10 01:09:00,60.9,60.9,29.79,South,189,0.0,0.0,100,0.00,,SKC,0.00,VWS V12.07,2013-06-10 06:09:00,
2013-06-10 01:15:00,61.0,61.0,29.79,South,189,0.0,0.0,100,0.00,,SKC,0.00,VWS V12.07,2013-06-10 06:15:00,
2013-06-10 01:22:00,61.2,61.2,29.79,South,189,0.0,0.0,100,0.00,,SKC,0.00,VWS V12.07,2013-06-10 06:22:00,
2013-06-10 01:29:00,61.3,61.3,29.79,South,189,0.0,0.0,100,0.00,,SKC,0.00,VWS V12.07,2013-06-10 06:29:00,
2013-06-10 01:35:00,61.3,61.3,29.79,South,189,0.0,0.0,100,0.00,,SKC,0.00,VWS V12.07,2013-06-10 06:35:00,
2013-06-10 01:42:00,61.4,61.4,29.79,South,189,0.0,0.0,100,0.00,,SKC,0.00,VWS V12.07,2013-06-10 06:42:00,
2013-06-10 01:48:00,61.4,61.4,29.79,South,188,0.0,0.0,100,0.00,,SKC,0.00,VWS V12.07,2013-06-10 06:48:00,
2013-06-10 01:54:00,61.6,61.6,29.79,South,188,0.0,0.0,100,0.00,,SKC,0.00,VWS V12.07,2013-06-10 06:54:00,
2013-06-10 02:02:00,61.6,61.6,29.79,West,266,0.0,0.0,100,0.00,,SKC,0.00,VWS V12.07,2013-06-10 07:02:00,
2013-06-10 02:08:00,61.7,61.7,29.79,West,266,0.0,0.0,100,0.00,,SKC,0.00,VWS V12.07,2013-06-10 07:08:00,
2013-06-10 02:15:00,61.6,61.6,29.79,West,266,0.0,0.0,100,0.00,,SKC,0.00,VWS V12.07,2013-06-10 07:15:00,
2013-06-10 02:22:00,61.6,61.6,29.79,West,271,0.0,0.0,100,0.00,,SKC,0.00,VWS V12.07,2013-06-10 07:22:00,
2013-06-10 02:28:00,61.6,61.6,29.78,West,271,0.0,0.0,100,0.00,,SKC,0.00,VWS V12.07,2013-06-10 07:28:00,
2013-06-10 02:33:00,61.7,61.7,29.78,West,271,0.0,0.0,100,0.00,,SKC,0.00,VWS V12.07,2013-06-10 07:33:00,
2013-06-10 02:40:00,61.6,61.6,29.78,West,271,0.0,0.0,100,0.00,,SKC,0.00,VWS V12.07,2013-06-10 07:40:00,
2013-06-10 02:46:00,61.6,61.6,29.78,West,271,0.0,0.0,100,0.00,,SKC,0.00,VWS V12.07,2013-06-10 07:46:00,
2013-06-10 02:53:00,61.5,61.5,29.78,West,271,0.0,0.0,100,0.00,,SKC,0.00,VWS V12.07,2013-06-10 07:53:00,
2013-06-10 03:00:00,61.5,61.5,29.78,West,271,0.0,0.0,100,0.00,,SKC,0.00,VWS V12.07,2013-06-10 08:00:00,
2013-06-10 03:07:00,61.5,61.5,29.78,West,271,0.0,0.0,100,0.00,,SKC,0.00,VWS V12.07,2013-06-10 08:07:00,
2013-06-10 03:13:00,61.4,61.4,29.78,West,271,0.0,0.0,100,0.00,,SKC,0.00,VWS V12.07,2013-06-10 08:13:00,
2013-06-10 03:19:00,61.4,61.4,29.78,West,271,0.0,0.0,100,0.00,,SKC,0.00,VWS V12.07,2013-06-10 08:19:00,
2013-06-10 03:27:00,61.3,61.3,29.78,WNW,299,0.0,1.0,100,0.00,,SKC,0.00,VWS V12.07,2013-06-10 08:27:00,
2013-06-10 03:34:00,61.4,61.4,29.78,WNW,300,0.0,0.0,100,0.00,,SKC,0.00,VWS V12.07,2013-06-10 08:34:00,
2013-06-10 03:39:00,61.5,61.5,29.78,WNW,300,0.0,0.0,100,0.00,,SKC,0.00,VWS V12.07,2013-06-10 08:39:00,
2013-06-10 03:47:00,61.5,61.5,29.78,WNW,300,0.0,0.0,100,0.00,,SKC,0.00,VWS V12.07,2013-06-10 08:47:00,
2013-06-10 03:54:00,61.5,61.5,29.78,WNW,299,0.0,0.0,100,0.00,,SKC,0.00,VWS V12.07,2013-06-10 08:54:00,
2013-06-10 03:59:00,61.4,61.4,29.78,WNW,299,0.0,0.0,100,0.00,,SKC,0.00,VWS V12.07,2013-06-10 08:59:00,
2013-06-10 04:07:00,61.5,61.5,29.78,WNW,299,0.0,0.0,100,0.00,,SKC,0.00,VWS V12.07,2013-06-10 09:07:00,
2013-06-10 04:14:00,61.5,61.5,29.78,WNW,299,0.0,0.0,100,0.00,,SKC,0.00,VWS V12.07,2013-06-10 09:14:00,
2013-06-10 04:19:00,61.5,61.5,29.78,WNW,299,0.0,0.0,100,0.00,,SKC,0.00,VWS V12.07,2013-06-10 09:19:00,
2013-06-10 04:26:00,61.4,61.4,29.78,WNW,299,0.0,0.0,100,0.00,,SKC,0.00,VWS V12.07,2013-06-10 09:26:00,
2013-06-10 04:34:00,61.4,61.4,29.78,WNW,288,0.0,1.0,100,0.00,,SKC,0.00,VWS V12.07,2013-06-10 09:34:00,
2013-06-10 04:40:00,61.4,61.4,29.78,NW,316,0.0,1.0,100,0.00,,SKC,0.00,VWS V12.07,2013-06-10 09:40:00,
2013-06-10 04:47:00,61.5,61.5,29.78,NW,314,0.0,1.0,100,0.00,,SKC,0.00,VWS V12.07,2013-06-10 09:47:00,
2013-06-10 04:54:00,61.5,61.5,29.79,WNW,294,0.0,2.0,100,0.00,,SKC,0.00,VWS V12.07,2013-06-10 09:54:00,
2013-06-10 04:59:00,61.5,61.5,29.78,WNW,294,0.0,2.0,100,0.00,,SKC,0.00,VWS V12.07,2013-06-10 09:59:00,
2013-06-10 05:04:00,61.5,61.5,29.79,NW,307,0.0,0.0,100,0.00,,SKC,0.00,VWS V12.07,2013-06-10 10:04:00,
2013-06-10 05:12:00,61.5,61.5,29.79,NW,309,0.0,3.0,100,0.00,,SKC,0.00,VWS V12.07,2013-06-10 10:12:00,
2013-06-10 05:18:00,61.5,61.5,29.79,WNW,288,1.0,3.0,100,0.00,,SKC,0.00,VWS V12.07,2013-06-10 10:18:00,
2013-06-10 05:25:00,61.4,61.4,29.80,WNW,290,0.0,3.0,100,0.00,,SKC,0.00,VWS V12.07,2013-06-10 10:25:00,
2013-06-10 05:32:00,61.4,61.1,29.80,WNW,299,0.0,0.0,99,0.00,,SKC,0.00,VWS V12.07,2013-06-10 10:32:00,
2013-06-10 05:38:00,61.3,61.0,29.80,WNW,300,0.0,0.0,99,0.00,,SKC,0.00,VWS V12.07,2013-06-10 10:38:00,
2013-06-10 05:44:00,61.3,61.0,29.80,WNW,299,0.0,0.0,99,0.00,,SKC,0.00,VWS V12.07,2013-06-10 10:44:00,
2013-06-10 05:51:00,61.2,60.9,29.80,WNW,300,0.0,0.0,99,0.00,,SKC,0.00,VWS V12.07,2013-06-10 10:51:00,
2013-06-10 05:58:00,61.2,60.9,29.80,WNW,300,0.0,0.0,99,0.00,,SKC,0.00,VWS V12.07,2013-06-10 10:58:00,
2013-06-10 06:04:00,61.2,60.9,29.80,WNW,300,0.0,0.0,99,0.00,,SKC,0.00,VWS V12.07,2013-06-10 11:04:00,
2013-06-10 06:12:00,61.3,61.0,29.81,WNW,299,0.0,0.0,99,0.00,,SKC,0.00,VWS V12.07,2013-06-10 11:12:00,
2013-06-10 06:19:00,61.4,61.4,29.81,WNW,299,0.0,0.0,100,0.00,,SKC,0.00,VWS V12.07,2013-06-10 11:19:00,
2013-06-10 06:24:00,61.6,61.6,29.81,WNW,299,0.0,0.0,100,0.00,,SKC,0.00,VWS V12.07,2013-06-10 11:24:00,
2013-06-10 06:32:00,61.7,61.7,29.81,WNW,299,0.0,0.0,100,0.00,,SKC,0.00,VWS V12.07,2013-06-10 11:32:00,
2013-06-10 06:39:00,61.9,61.9,29.81,WNW,300,0.0,1.0,100,0.00,,SKC,0.00,VWS V12.07,2013-06-10 11:39:00,
2013-06-10 06:45:00,62.1,62.1,29.81,NW,308,0.0,2.0,100,0.00,,SKC,0.00,VWS V12.07,2013-06-10 11:45:00,
2013-06-10 06:52:00,62.1,62.1,29.81,WNW,283,0.0,2.0,100,0.00,,SKC,0.00,VWS V12.07,2013-06-10 11:52:00,
2013-06-10 06:58:00,62.2,62.2,29.81,WNW,288,0.0,2.0,100,0.00,,SKC,0.00,VWS V12.07,2013-06-10 11:58:00,
2013-06-10 07:04:00,62.2,61.9,29.81,NW,318,1.0,2.0,99,0.00,,SKC,0.00,VWS V12.07,2013-06-10 12:04:00,
2013-06-10 07:12:00,62.4,62.1,29.81,West,278,1.0,2.0,99,0.00,,SKC,0.00,VWS V12.07,2013-06-10 12:12:00,
2013-06-10 07:19:00,62.6,62.3,29.81,WNW,295,1.0,3.0,99,0.00,,SKC,0.00,VWS V12.07,2013-06-10 12:19:00,
2013-06-10 07:25:00,62.7,62.4,29.81,NW,316,1.0,4.0,99,0.00,,SKC,0.00,VWS V12.07,2013-06-10 12:25:00,
2013-06-10 07:32:00,63.1,62.5,29.81,NW,314,2.0,2.0,98,0.00,,SKC,0.00,VWS V12.07,2013-06-10 12:32:00,
2013-06-10 07:39:00,63.4,62.8,29.81,NW,319,1.0,4.0,98,0.00,,SKC,0.00,VWS V12.07,2013-06-10 12:39:00,
2013-06-10 07:44:00,63.7,63.1,29.82,NW,311,2.0,4.0,98,0.00,,SKC,0.00,VWS V12.07,2013-06-10 12:44:00,
2013-06-10 07:52:00,64.1,62.9,29.82,NNW,328,2.0,5.0,96,0.00,,SKC,0.00,VWS V12.07,2013-06-10 12:52:00,
2013-06-10 07:59:00,64.4,63.2,29.82,WNW,300,2.0,6.0,96,0.00,,SKC,0.00,VWS V12.07,2013-06-10 12:59:00,
2013-06-10 08:05:00,64.6,63.1,29.82,NW,308,1.0,6.0,95,0.00,,SKC,0.00,VWS V12.07,2013-06-10 13:05:00,
2013-06-10 08:12:00,64.7,63.2,29.82,WNW,295,5.0,7.0,95,0.00,,SKC,0.00,VWS V12.07,2013-06-10 13:12:00,
2013-06-10 08:19:00,64.9,63.1,29.83,West,278,2.0,7.0,94,0.00,,SKC,0.00,VWS V12.07,2013-06-10 13:19:00,
2013-06-10 08:24:00,65.1,63.3,29.83,WNW,302,3.0,7.0,94,0.00,,SKC,0.00,VWS V12.07,2013-06-10 13:24:00,
2013-06-10 08:32:00,65.3,63.5,29.83,NW,305,2.0,3.0,94,0.00,,SKC,0.00,VWS V12.07,2013-06-10 13:32:00,
2013-06-10 08:38:00,65.4,63.3,29.83,WNW,291,3.0,6.0,93,0.00,,SKC,0.00,VWS V12.07,2013-06-10 13:38:00,
2013-06-10 08:45:00,65.6,63.5,29.83,NW,314,1.0,6.0,93,0.00,,SKC,0.00,VWS V12.07,2013-06-10 13:45:00,
2013-06-10 08:52:00,65.7,63.3,29.84,NW,314,3.0,6.0,92,0.00,,SKC,0.00,VWS V12.07,2013-06-10 13:52:00,
2013-06-10 08:58:00,65.9,63.5,29.84,NW,309,3.0,6.0,92,0.00,,SKC,0.00,VWS V12.07,2013-06-10 13:58:00,
2013-06-10 09:06:00,66.7,63.7,29.84,WNW,295,4.0,6.0,90,0.01,,SKC,0.01,VWS V12.07,2013-06-10 14:06:00,
2013-06-10 09:14:00,67.3,63.6,29.84,WNW,295,3.0,7.0,88,0.01,,SKC,0.01,VWS V12.07,2013-06-10 14:14:00,
2013-06-10 09:20:00,67.4,63.4,29.84,WNW,302,2.0,8.0,87,0.01,,SKC,0.01,VWS V12.07,2013-06-10 14:20:00,
2013-06-10 09:27:00,67.7,64.0,29.84,North,1,1.0,8.0,88,0.01,,SKC,0.01,VWS V12.07,2013-06-10 14:27:00,
2013-06-10 09:35:00,67.7,63.7,29.84,ENE,71,1.0,5.0,87,0.01,,SKC,0.01,VWS V12.07,2013-06-10 14:35:00,
2013-06-10 09:42:00,67.6,63.6,29.84,WNW,285,1.0,6.0,87,0.01,,SKC,0.01,VWS V12.07,2013-06-10 14:42:00,
2013-06-10 09:48:00,67.4,63.7,29.85,NW,311,0.0,6.0,88,0.01,,SKC,0.01,VWS V12.07,2013-06-10 14:48:00,
2013-06-10 09:56:00,67.2,63.5,29.85,WNW,288,3.0,6.0,88,0.01,,SKC,0.01,VWS V12.07,2013-06-10 14:56:00,
2013-06-10 10:04:00,67.3,63.3,29.85,North,11,3.0,6.0,87,0.00,,SKC,0.01,VWS V12.07,2013-06-10 15:04:00,
2013-06-10 10:12:00,67.5,63.2,29.85,NW,319,5.0,7.0,86,0.00,,SKC,0.01,VWS V12.07,2013-06-10 15:12:00,
2013-06-10 10:20:00,67.7,63.4,29.85,NW,308,2.0,7.0,86,0.00,,SKC,0.01,VWS V12.07,2013-06-10 15:20:00,
2013-06-10 10:27:00,68.0,63.7,29.85,West,281,3.0,7.0,86,0.00,,SKC,0.01,VWS V12.07,2013-06-10 15:27:00,
2013-06-10 10:34:00,68.4,65.0,29.85,WSW,249,1.0,7.0,89,0.00,,SKC,0.01,VWS V12.07,2013-06-10 15:34:00,
2013-06-10 10:40:00,68.9,63.5,29.86,NW,312,4.0,7.0,83,0.00,,SKC,0.01,VWS V12.07,2013-06-10 15:40:00,
2013-06-10 10:47:00,69.3,63.2,29.86,NNW,347,5.0,11.0,81,0.00,,SKC,0.01,VWS V12.07,2013-06-10 15:47:00,
2013-06-10 10:55:00,69.6,63.5,29.86,NW,316,4.0,11.0,81,0.00,,SKC,0.01,VWS V12.07,2013-06-10 15:55:00,
2013-06-10 11:04:00,69.8,63.7,29.86,NNW,338,0.0,7.0,81,0.00,,SKC,0.01,VWS V12.07,2013-06-10 16:04:00,
2013-06-10 11:12:00,70.3,63.8,29.86,North,6,4.0,7.0,80,0.00,,SKC,0.01,VWS V12.07,2013-06-10 16:12:00,
2013-06-10 11:19:00,70.3,63.5,29.87,NNW,347,3.0,7.0,79,0.00,,SKC,0.01,VWS V12.07,2013-06-10 16:19:00,
2013-06-10 11:29:00,69.9,63.1,29.87,NW,304,5.0,7.0,79,0.00,,SKC,0.01,VWS V12.07,2013-06-10 16:29:00,
2013-06-10 11:35:00,69.7,63.6,29.88,NW,321,5.0,7.0,81,0.00,,SKC,0.01,VWS V12.07,2013-06-10 16:35:00,
2013-06-10 11:42:00,69.8,64.1,29.88,SE,133,1.0,7.0,82,0.00,,SKC,0.01,VWS V12.07,2013-06-10 16:42:00,
2013-06-10 11:50:00,70.2,63.8,29.88,NW,305,3.0,10.0,80,0.00,,SKC,0.01,VWS V12.07,2013-06-10 16:50:00,
2013-06-10 11:59:00,70.9,63.3,29.88,NW,304,2.0,10.0,77,0.00,,SKC,0.01,VWS V12.07,2013-06-10 16:59:00,
2013-06-10 12:06:00,70.9,63.0,29.87,NW,316,3.0,8.0,76,0.00,,SKC,0.01,VWS V12.07,2013-06-10 17:06:00,
2013-06-10 12:14:00,71.4,63.1,29.87,NNW,347,3.0,8.0,75,0.00,,SKC,0.01,VWS V12.07,2013-06-10 17:14:00,
2013-06-10 12:24:00,71.5,63.5,29.88,North,356,3.0,8.0,76,0.00,,SKC,0.01,VWS V12.07,2013-06-10 17:24:00,
2013-06-10 12:31:00,71.9,63.9,29.88,WNW,301,5.0,8.0,76,0.00,,SKC,0.01,VWS V12.07,2013-06-10 17:31:00,
2013-06-10 12:39:00,71.8,62.7,29.88,NW,305,3.0,8.0,73,0.00,,SKC,0.01,VWS V12.07,2013-06-10 17:39:00,
2013-06-10 12:44:00,71.8,63.8,29.88,WNW,297,4.0,11.0,76,0.00,,SKC,0.01,VWS V12.07,2013-06-10 17:44:00,
2013-06-10 12:54:00,72.0,63.7,29.88,North,5,1.0,11.0,75,0.00,,SKC,0.01,VWS V12.07,2013-06-10 17:54:00,
2013-06-10 13:00:00,72.4,63.7,29.88,WNW,297,4.0,11.0,74,0.00,,SKC,0.01,VWS V12.07,2013-06-10 18:00:00,
2013-06-10 13:07:00,72.7,63.2,29.88,NNW,346,4.0,10.0,72,0.00,,SKC,0.01,VWS V12.07,2013-06-10 18:07:00,
2013-06-10 13:14:00,72.7,63.2,29.88,NW,309,5.0,10.0,72,0.00,,SKC,0.01,VWS V12.07,2013-06-10 18:14:00,
2013-06-10 13:19:00,72.5,63.4,29.88,NW,304,3.0,10.0,73,0.00,,SKC,0.01,VWS V12.07,2013-06-10 18:19:00,
2013-06-10 13:27:00,72.3,63.2,29.88,NW,311,2.0,10.0,73,0.00,,SKC,0.01,VWS V12.07,2013-06-10 18:27:00,
2013-06-10 13:34:00,72.0,62.9,29.88,NW,325,0.0,7.0,73,0.00,,SKC,0.01,VWS V12.07,2013-06-10 18:34:00,
2013-06-10 13:40:00,72.8,64.0,29.88,NNW,328,5.0,7.0,74,0.00,,SKC,0.01,VWS V12.07,2013-06-10 18:40:00,
2013-06-10 13:49:00,73.2,64.0,29.88,WNW,294,1.0,8.0,73,0.00,,SKC,0.01,VWS V12.07,2013-06-10 18:49:00,
2013-06-10 13:54:00,74.2,64.6,29.88,NW,315,5.0,8.0,72,0.00,,SKC,0.01,VWS V12.07,2013-06-10 18:54:00,
2013-06-10 13:59:00,74.6,65.0,29.88,WNW,297,2.0,8.0,72,0.00,,SKC,0.01,VWS V12.07,2013-06-10 18:59:00,
2013-06-10 14:04:00,74.1,63.3,29.87,WNW,285,4.0,8.0,69,0.00,,SKC,0.01,VWS V12.07,2013-06-10 19:04:00,
2013-06-10 14:12:00,73.3,64.1,29.88,ENE,71,3.0,8.0,73,0.00,,SKC,0.01,VWS V12.07,2013-06-10 19:12:00,
2013-06-10 14:19:00,73.5,63.1,29.87,NW,320,3.0,8.0,70,0.00,,SKC,0.01,VWS V12.07,2013-06-10 19:19:00,
2013-06-10 14:25:00,74.2,64.2,29.87,NE,40,2.0,8.0,71,0.00,,SKC,0.01,VWS V12.07,2013-06-10 19:25:00,
2013-06-10 14:32:00,74.5,64.1,29.87,WNW,291,2.0,6.0,70,0.00,,SKC,0.01,VWS V12.07,2013-06-10 19:32:00,
2013-06-10 14:39:00,74.8,64.0,29.86,SW,227,2.0,8.0,69,0.00,,SKC,0.01,VWS V12.07,2013-06-10 19:39:00,
2013-06-10 14:47:00,75.0,65.0,29.86,North,6,4.0,9.0,71,0.00,,SKC,0.01,VWS V12.07,2013-06-10 19:47:00,
2013-06-10 14:55:00,75.2,63.5,29.86,NW,326,4.0,9.0,67,0.00,,SKC,0.01,VWS V12.07,2013-06-10 19:55:00,
2013-06-10 15:02:00,74.9,62.8,29.86,WNW,300,4.0,11.0,66,0.00,,SKC,0.01,VWS V12.07,2013-06-10 20:02:00,
2013-06-10 15:10:00,76.2,64.4,29.87,West,260,6.0,11.0,67,0.00,,SKC,0.01,VWS V12.07,2013-06-10 20:10:00,
2013-06-10 15:19:00,76.1,63.5,29.87,NW,320,6.0,11.0,65,0.00,,SKC,0.01,VWS V12.07,2013-06-10 20:19:00,
2013-06-10 15:26:00,75.8,64.1,29.88,NNW,327,5.0,12.0,67,0.00,,SKC,0.01,VWS V12.07,2013-06-10 20:26:00,
2013-06-10 15:32:00,75.8,64.5,29.88,NW,309,2.0,5.0,68,0.00,,SKC,0.01,VWS V12.07,2013-06-10 20:32:00,
2013-06-10 15:40:00,75.9,65.0,29.88,NW,323,2.0,6.0,69,0.00,,SKC,0.01,VWS V12.07,2013-06-10 20:40:00,
2013-06-10 15:49:00,76.2,65.3,29.88,ENE,61,2.0,7.0,69,0.00,,SKC,0.01,VWS V12.07,2013-06-10 20:49:00,
2013-06-10 15:57:00,76.3,64.6,29.88,North,354,6.0,7.0,67,0.00,,SKC,0.01,VWS V12.07,2013-06-10 20:57:00,
2013-06-10 16:04:00,75.9,64.2,29.88,NW,314,3.0,7.0,67,0.00,,SKC,0.01,VWS V12.07,2013-06-10 21:04:00,
2013-06-10 16:09:00,75.9,64.2,29.87,WNW,289,5.0,7.0,67,0.00,,SKC,0.01,VWS V12.07,2013-06-10 21:09:00,
2013-06-10 16:14:00,76.2,64.4,29.87,NNW,342,2.0,7.0,67,0.00,,SKC,0.01,VWS V12.07,2013-06-10 21:14:00,
2013-06-10 16:19:00,76.1,64.8,29.87,ENE,63,2.0,7.0,68,0.00,,SKC,0.01,VWS V12.07,2013-06-10 21:19:00,
2013-06-10 16:29:00,76.6,65.3,29.87,NE,37,2.0,7.0,68,0.00,,SKC,0.01,VWS V12.07,2013-06-10 21:29:00,
2013-06-10 16:34:00,76.1,64.4,29.87,NW,305,1.0,4.0,67,0.00,,SKC,0.01,VWS V12.07,2013-06-10 21:34:00,
2013-06-10 16:41:00,76.6,64.8,29.87,NNE,30,1.0,4.0,67,0.00,,SKC,0.01,VWS V12.07,2013-06-10 21:41:00,
2013-06-10 16:49:00,77.2,65.0,29.87,NW,318,3.0,6.0,66,0.00,,SKC,0.01,VWS V12.07,2013-06-10 21:49:00,
2013-06-10 16:59:00,78.0,64.4,29.87,North,9,3.0,6.0,63,0.00,,SKC,0.01,VWS V12.07,2013-06-10 21:59:00,
2013-06-10 17:09:00,77.7,64.1,29.87,North,354,2.0,6.0,63,0.00,,SKC,0.01,VWS V12.07,2013-06-10 22:09:00,
2013-06-10 17:20:00,78.5,64.4,29.86,NW,311,2.0,6.0,62,0.00,,SKC,0.01,VWS V12.07,2013-06-10 22:20:00,
2013-06-10 17:27:00,78.5,64.0,29.86,NW,312,2.0,7.0,61,0.00,,SKC,0.01,VWS V12.07,2013-06-10 22:27:00,
2013-06-10 17:35:00,78.8,64.2,29.86,WNW,302,3.0,4.0,61,0.00,,SKC,0.01,VWS V12.07,2013-06-10 22:35:00,
2013-06-10 17:42:00,78.8,64.2,29.86,NNW,333,0.0,4.0,61,0.00,,SKC,0.01,VWS V12.07,2013-06-10 22:42:00,
2013-06-10 17:49:00,78.6,64.5,29.86,WNW,300,2.0,5.0,62,0.00,,SKC,0.01,VWS V12.07,2013-06-10 22:49:00,
2013-06-10 17:56:00,78.6,65.0,29.87,NE,56,3.0,5.0,63,0.00,,SKC,0.01,VWS V12.07,2013-06-10 22:56:00,
2013-06-10 18:02:00,78.3,64.2,29.87,NNE,29,3.0,6.0,62,0.00,,SKC,0.01,VWS V12.07,2013-06-10 23:02:00,
2013-06-10 18:10:00,78.3,64.7,29.87,East,96,1.0,6.0,63,0.00,,SKC,0.01,VWS V12.07,2013-06-10 23:10:00,
2013-06-10 18:17:00,78.5,64.4,29.87,NNW,330,2.0,6.0,62,0.00,,SKC,0.01,VWS V12.07,2013-06-10 23:17:00,
2013-06-10 18:25:00,78.4,64.8,29.87,NW,315,2.0,6.0,63,0.00,,SKC,0.01,VWS V12.07,2013-06-10 23:25:00,
2013-06-10 18:32:00,79.0,65.3,29.87,NNW,335,1.0,2.0,63,0.00,,SKC,0.01,VWS V12.07,2013-06-10 23:32:00,
2013-06-10 18:39:00,79.3,65.2,29.87,WSW,254,0.0,3.0,62,0.00,,SKC,0.01,VWS V12.07,2013-06-10 23:39:00,
2013-06-10 18:47:00,79.2,64.6,29.87,NW,312,1.0,3.0,61,0.00,,SKC,0.01,VWS V12.07,2013-06-10 23:47:00,
2013-06-10 18:55:00,78.6,64.0,29.87,NNW,347,0.0,4.0,61,0.00,,SKC,0.01,VWS V12.07,2013-06-10 23:55:00,
2013-06-10 19:04:00,79.0,64.4,29.88,NE,39,0.0,0.0,61,0.00,,SKC,0.01,VWS V12.07,2013-06-11 00:04:00,
2013-06-10 19:10:00,79.3,65.6,29.88,NE,39,0.0,0.0,63,0.00,,SKC,0.01,VWS V12.07,2013-06-11 00:10:00,
2013-06-10 19:17:00,79.2,64.1,29.87,NNE,30,0.0,0.0,60,0.00,,SKC,0.01,VWS V12.07,2013-06-11 00:17:00,
2013-06-10 19:24:00,79.1,64.5,29.88,NNE,20,0.0,0.0,61,0.00,,SKC,0.01,VWS V12.07,2013-06-11 00:24:00,
2013-06-10 19:30:00,80.0,66.7,29.87,NNE,20,0.0,0.0,64,0.00,,SKC,0.01,VWS V12.07,2013-06-11 00:30:00,
2013-06-10 19:39:00,81.6,66.9,29.87,NNE,20,0.0,0.0,61,0.00,,SKC,0.01,VWS V12.07,2013-06-11 00:39:00,
2013-06-10 19:44:00,81.8,65.6,29.87,NNE,22,0.0,0.0,58,0.00,,SKC,0.01,VWS V12.07,2013-06-11 00:44:00,
2013-06-10 19:49:00,81.5,66.8,29.87,NNE,20,0.0,0.0,61,0.00,,SKC,0.01,VWS V12.07,2013-06-11 00:49:00,
2013-06-10 19:59:00,82.0,65.8,29.88,NNE,20,0.0,0.0,58,0.00,,SKC,0.01,VWS V12.07,2013-06-11 00:59:00,
2013-06-10 20:10:00,79.8,64.7,29.87,NNE,20,0.0,0.0,60,0.00,,SKC,0.01,VWS V12.07,2013-06-11 01:10:00,
2013-06-10 20:19:00,76.5,64.7,29.87,NNE,20,0.0,0.0,67,0.00,,SKC,0.01,VWS V12.07,2013-06-11 01:19:00,
2013-06-10 20:29:00,74.6,64.6,29.87,NNE,20,0.0,0.0,71,0.00,,SKC,0.01,VWS V12.07,2013-06-11 01:29:00,
2013-06-10 20:36:00,73.2,64.0,29.87,NNE,20,0.0,0.0,73,0.00,,SKC,0.01,VWS V12.07,2013-06-11 01:36:00,
2013-06-10 20:44:00,72.1,63.8,29.87,NNE,22,0.0,0.0,75,0.00,,SKC,0.01,VWS V12.07,2013-06-11 01:44:00,
2013-06-10 20:50:00,71.2,63.6,29.87,ESE,122,0.0,0.0,77,0.00,,SKC,0.01,VWS V12.07,2013-06-11 01:50:00,
2013-06-10 20:59:00,70.7,63.5,29.87,ESE,121,0.0,0.0,78,0.00,,SKC,0.01,VWS V12.07,2013-06-11 01:59:00,
2013-06-10 21:09:00,70.2,63.4,29.88,ESE,108,0.0,2.0,79,0.00,,SKC,0.01,VWS V12.07,2013-06-11 02:09:00,
2013-06-10 21:17:00,69.7,63.6,29.88,SE,129,0.0,2.0,81,0.00,,SKC,0.01,VWS V12.07,2013-06-11 02:17:00,
2013-06-10 21:24:00,69.3,63.2,29.88,SE,125,0.0,2.0,81,0.00,,SKC,0.01,VWS V12.07,2013-06-11 02:24:00,
2013-06-10 21:34:00,68.7,63.3,29.88,SE,125,0.0,0.0,83,0.00,,SKC,0.01,VWS V12.07,2013-06-11 02:34:00,
2013-06-10 21:40:00,68.3,63.3,29.89,SE,126,0.0,0.0,84,0.00,,SKC,0.01,VWS V12.07,2013-06-11 02:40:00,
2013-06-10 21:49:00,68.0,63.3,29.89,SE,130,0.0,0.0,85,0.00,,SKC,0.01,VWS V12.07,2013-06-11 02:49:00,
2013-06-10 21:54:00,68.0,63.3,29.89,SE,129,0.0,0.0,85,0.00,,SKC,0.01,VWS V12.07,2013-06-11 02:54:00,
2013-06-10 22:02:00,67.6,63.6,29.89,SE,129,0.0,0.0,87,0.00,,SKC,0.01,VWS V12.07,2013-06-11 03:02:00,
2013-06-10 22:09:00,67.5,63.5,29.89,SE,138,0.0,0.0,87,0.00,,SKC,0.01,VWS V12.07,2013-06-11 03:09:00,
2013-06-10 22:15:00,67.6,63.6,29.89,SE,138,0.0,0.0,87,0.00,,SKC,0.01,VWS V12.07,2013-06-11 03:15:00,
2013-06-10 22:22:00,67.5,63.5,29.90,SSE,162,0.0,0.0,87,0.00,,SKC,0.01,VWS V12.07,2013-06-11 03:22:00,
2013-06-10 22:29:00,67.3,63.6,29.90,SE,136,0.0,0.0,88,0.00,,SKC,0.01,VWS V12.07,2013-06-11 03:29:00,
2013-06-10 22:35:00,67.2,63.5,29.90,SE,137,0.0,0.0,88,0.00,,SKC,0.01,VWS V12.07,2013-06-11 03:35:00,
2013-06-10 22:42:00,66.8,63.5,29.90,SE,136,0.0,0.0,89,0.00,,SKC,0.01,VWS V12.07,2013-06-11 03:42:00,
2013-06-10 22:49:00,66.6,63.6,29.90,SE,136,0.0,0.0,90,0.00,,SKC,0.01,VWS V12.07,2013-06-11 03:49:00,
2013-06-10 22:55:00,66.4,63.4,29.90,SE,140,0.0,0.0,90,0.00,,SKC,0.01,VWS V12.07,2013-06-11 03:55:00,
2013-06-10 23:02:00,66.2,63.5,29.90,SE,138,1.0,2.0,91,0.00,,SKC,0.01,VWS V12.07,2013-06-11 04:02:00,
2013-06-10 23:05:00,66.0,63.3,29.90,SE,138,0.0,2.0,91,0.00,,SKC,0.01,VWS V12.07,2013-06-11 04:05:00,
2013-06-10 23:12:00,65.8,63.1,29.90,SSE,164,0.0,3.0,91,0.00,,SKC,0.01,VWS V12.07,2013-06-11 04:12:00,
2013-06-10 23:15:00,65.6,63.2,29.90,SE,130,0.0,3.0,92,0.00,,SKC,0.01,VWS V12.07,2013-06-11 04:15:00,
2013-06-10 23:22:00,65.5,63.4,29.90,SE,136,1.0,3.0,93,0.00,,SKC,0.01,VWS V12.07,2013-06-11 04:22:00,
2013-06-10 23:29:00,65.4,63.3,29.90,SE,131,2.0,4.0,93,0.00,,SKC,0.01,VWS V12.07,2013-06-11 04:29:00,
2013-06-10 23:35:00,65.4,63.3,29.90,SE,145,1.0,3.0,93,0.00,,SKC,0.01,VWS V12.07,2013-06-11 04:35:00,
2013-06-10 23:42:00,65.2,63.1,29.90,SE,142,0.0,3.0,93,0.00,,SKC,0.01,VWS V12.07,2013-06-11 04:42:00,
2013-06-10 23:49:00,64.9,62.8,29.90,SSE,148,0.0,3.0,93,0.00,,SKC,0.01,VWS V12.07,2013-06-11 04:49:00,
2013-06-10 23:55:00,64.8,63.0,29.91,SSE,150,0.0,3.0,94,0.00,,SKC,0.01,VWS V12.07,2013-06-11 04:55:00,